Main page
METAR-TAF:

METAR-TAF

Airports :

Laupheim, Germany

Laupheim Air Base

latitude: 48-13N, longitude: 009-55E, elevation: 538 m

Current weather observation

The report was made 20 minutes ago, at 20:20 UTC
Wind 2 kt from the East
Temperature 22°C
Humidity 65%
Pressure 1006 hPa
Visibility 10 km or more
Few clouds at a height of 5000 ft
Broken clouds at a height of 12000 ft

METAR: ETHL 272020Z 08002KT 9999 FEW050 BKN120 22/15 Q1006 BLU

Time: 22:40 (20:40 UTC)

Forecast

The report was made 2 hours and 55 minutes ago, at 17:45 UTC
Forecast valid from 27 at 17 UTC to 28 at 02 UTC
Wind 5 kt from the West/Southwest
Visibility: 1820 m
Few clouds at a height of 5000 ft
Scattered clouds at a height of 12000 ft

TAF: ETHL 271745Z 2717/2802 24005KT 9999 NSW FEW050 SCT120 CANCEL 1820

Weather observations and forecasts of more than 4000 airports (METAR and TAF reports).

The available stations are represented by yellow and red dots on the map.

Hover mouse over dot to see the name of the station.

Then click to see weather observations and forecasts.

To change the map : click on the green buttons with a black cross to zoom in, on the green button with a dash to zoom out, or on the green arrows for adjacent maps.


METAR-TAF: